Time,TemperatureF,DewpointF,PressureIn,WindDirection,WindDirectionDegrees,WindSpeedMPH,WindSpeedGustMPH,Humidity,HourlyPrecipIn,Conditions,Clouds,dailyrainin,SoftwareType,DateUTC
2013-06-05 00:07:00,53.8,43.0,30.10,NNE,13,0.0,0.0,68,0.00,,,0.00,weatherlink.com 1.10,2013-06-05 04:07:00,
2013-06-05 00:22:00,52.1,44.0,30.10,NNE,13,0.0,0.0,74,0.00,,,0.00,weatherlink.com 1.10,2013-06-05 04:22:00,
2013-06-05 00:37:00,50.1,44.0,30.11,NNE,13,0.0,0.0,80,0.00,,,0.00,weatherlink.com 1.10,2013-06-05 04:37:00,
2013-06-05 00:52:00,48.9,44.0,30.11,NNE,13,0.0,0.0,84,0.00,,,0.00,weatherlink.com 1.10,2013-06-05 04:52:00,
2013-06-05 01:07:00,47.7,44.0,30.11,NNE,13,0.0,0.0,87,0.00,,,0.00,weatherlink.com 1.10,2013-06-05 05:07:00,
2013-06-05 01:22:00,47.0,44.0,30.11,NNE,13,0.0,0.0,89,0.00,,,0.00,weatherlink.com 1.10,2013-06-05 05:22:00,
2013-06-05 01:37:00,46.5,44.0,30.11,NNE,13,0.0,0.0,91,0.00,,,0.00,weatherlink.com 1.10,2013-06-05 05:37:00,
2013-06-05 01:52:00,46.5,44.0,30.11,NNE,13,0.0,0.0,92,0.00,,,0.00,weatherlink.com 1.10,2013-06-05 05:52:00,
2013-06-05 02:07:00,46.8,45.0,30.11,NNE,13,0.0,0.0,93,0.00,,,0.00,weatherlink.com 1.10,2013-06-05 06:07:00,
2013-06-05 02:23:00,47.3,45.0,30.11,NNE,13,0.0,0.0,93,0.00,,,0.00,weatherlink.com 1.10,2013-06-05 06:23:00,
2013-06-05 02:38:00,47.9,46.0,30.11,NNE,13,0.0,0.0,92,0.00,,,0.00,weatherlink.com 1.10,2013-06-05 06:38:00,
2013-06-05 02:53:00,48.7,46.0,30.11,NNE,13,0.0,0.0,91,0.00,,,0.00,weatherlink.com 1.10,2013-06-05 06:53:00,
2013-06-05 03:08:00,49.2,47.0,30.11,NNE,13,0.0,0.0,90,0.00,,,0.00,weatherlink.com 1.10,2013-06-05 07:08:00,
2013-06-05 03:23:00,49.3,47.0,30.11,NNE,13,0.0,0.0,90,0.00,,,0.00,weatherlink.com 1.10,2013-06-05 07:23:00,
2013-06-05 03:38:00,49.2,47.0,30.12,NNE,13,0.0,0.0,90,0.00,,,0.00,weatherlink.com 1.10,2013-06-05 07:38:00,
2013-06-05 03:53:00,48.8,46.0,30.12,NNE,13,0.0,0.0,91,0.00,,,0.00,weatherlink.com 1.10,2013-06-05 07:53:00,
2013-06-05 04:08:00,48.2,46.0,30.12,NNE,13,0.0,0.0,91,0.00,,,0.00,weatherlink.com 1.10,2013-06-05 08:08:00,
2013-06-05 04:23:00,47.5,45.0,30.12,NNE,13,0.0,0.0,92,0.00,,,0.00,weatherlink.com 1.10,2013-06-05 08:23:00,
2013-06-05 04:38:00,46.9,45.0,30.12,NNE,13,0.0,0.0,93,0.00,,,0.00,weatherlink.com 1.10,2013-06-05 08:38:00,
2013-06-05 04:53:00,46.2,44.0,30.13,NNE,13,0.0,0.0,93,0.00,,,0.00,weatherlink.com 1.10,2013-06-05 08:53:00,
2013-06-05 05:08:00,45.6,44.0,30.13,NNE,13,0.0,0.0,94,0.00,,,0.00,weatherlink.com 1.10,2013-06-05 09:08:00,
2013-06-05 05:23:00,45.1,44.0,30.13,NNE,13,0.0,0.0,95,0.00,,,0.00,weatherlink.com 1.10,2013-06-05 09:23:00,
2013-06-05 05:38:00,45.0,44.0,30.14,NNE,13,0.0,0.0,95,0.00,,,0.00,weatherlink.com 1.10,2013-06-05 09:38:00,
2013-06-05 05:53:00,44.9,44.0,30.14,NNE,13,0.0,0.0,96,0.00,,,0.00,weatherlink.com 1.10,2013-06-05 09:53:00,
2013-06-05 06:08:00,44.9,44.0,30.15,NNE,13,0.0,0.0,96,0.00,,,0.00,weatherlink.com 1.10,2013-06-05 10:08:00,
2013-06-05 06:23:00,45.4,45.0,30.15,NNE,13,0.0,0.0,97,0.00,,,0.00,weatherlink.com 1.10,2013-06-05 10:23:00,
2013-06-05 06:38:00,46.2,45.0,30.16,NNE,13,0.0,0.0,97,0.00,,,0.00,weatherlink.com 1.10,2013-06-05 10:38:00,
2013-06-05 06:53:00,47.4,47.0,30.16,NNE,13,0.0,0.0,98,0.00,,,0.00,weatherlink.com 1.10,2013-06-05 10:53:00,
2013-06-05 07:08:00,48.5,47.0,30.17,NNE,30,0.0,0.0,95,0.00,,,0.00,weatherlink.com 1.10,2013-06-05 11:08:00,
2013-06-05 07:23:00,51.1,46.0,30.17,WNW,293,0.0,0.0,84,0.00,,,0.00,weatherlink.com 1.10,2013-06-05 11:23:00,
2013-06-05 07:38:00,52.0,47.0,30.17,WNW,293,0.0,0.0,82,0.00,,,0.00,weatherlink.com 1.10,2013-06-05 11:38:00,
2013-06-05 07:53:00,53.7,47.0,30.18,NNE,33,0.0,2.0,78,0.00,,,0.00,weatherlink.com 1.10,2013-06-05 11:53:00,
2013-06-05 08:08:00,55.1,47.0,30.18,WSW,257,2.0,2.0,75,0.00,,,0.00,weatherlink.com 1.10,2013-06-05 12:08:00,
2013-06-05 08:23:00,56.5,48.0,30.18,ESE,121,0.0,1.0,72,0.00,,,0.00,weatherlink.com 1.10,2013-06-05 12:23:00,
2013-06-05 08:38:00,58.4,48.0,30.19,West,278,0.0,3.0,69,0.00,,,0.00,weatherlink.com 1.10,2013-06-05 12:38:00,
2013-06-05 08:53:00,60.4,49.0,30.18,West,267,0.0,3.0,67,0.00,,,0.00,weatherlink.com 1.10,2013-06-05 12:53:00,
2013-06-05 09:08:00,62.6,50.0,30.18,West,274,0.0,1.0,64,0.00,,,0.00,weatherlink.com 1.10,2013-06-05 13:08:00,
2013-06-05 09:23:00,63.8,50.0,30.18,WNW,299,0.0,0.0,61,0.00,,,0.00,weatherlink.com 1.10,2013-06-05 13:23:00,
2013-06-05 09:38:00,65.1,50.0,30.18,NNE,17,0.0,1.0,59,0.00,,,0.00,weatherlink.com 1.10,2013-06-05 13:38:00,
2013-06-05 09:54:00,66.4,49.0,30.18,SW,226,0.0,1.0,54,0.00,,,0.00,weatherlink.com 1.10,2013-06-05 13:54:00,
2013-06-05 10:09:00,67.3,50.0,30.18,NE,38,0.0,1.0,54,0.00,,,0.00,weatherlink.com 1.10,2013-06-05 14:09:00,
2013-06-05 10:24:00,67.2,49.0,30.17,SE,138,0.0,2.0,52,0.00,,,0.00,weatherlink.com 1.10,2013-06-05 14:24:00,
2013-06-05 10:39:00,68.3,48.0,30.18,East,85,0.0,1.0,49,0.00,,,0.00,weatherlink.com 1.10,2013-06-05 14:39:00,
2013-06-05 10:54:00,69.2,52.0,30.17,ENE,63,0.0,0.0,55,0.00,,,0.00,weatherlink.com 1.10,2013-06-05 14:54:00,
2013-06-05 11:09:00,69.9,49.0,30.17,ESE,110,0.0,1.0,47,0.00,,,0.00,weatherlink.com 1.10,2013-06-05 15:09:00,
2013-06-05 11:24:00,70.3,49.0,30.16,NE,56,0.0,3.0,47,0.00,,,0.00,weatherlink.com 1.10,2013-06-05 15:24:00,
2013-06-05 11:39:00,70.7,50.0,30.16,WSW,257,2.0,4.0,49,0.00,,,0.00,weatherlink.com 1.10,2013-06-05 15:39:00,
2013-06-05 11:54:00,70.8,50.0,30.16,NW,309,0.0,3.0,48,0.00,,,0.00,weatherlink.com 1.10,2013-06-05 15:54:00,
2013-06-05 12:09:00,72.1,51.0,30.15,West,266,0.0,3.0,47,0.00,,,0.00,weatherlink.com 1.10,2013-06-05 16:09:00,
2013-06-05 12:25:00,72.1,49.0,30.15,NNE,15,0.0,2.0,44,0.00,,,0.00,weatherlink.com 1.10,2013-06-05 16:25:00,
2013-06-05 12:39:00,73.1,51.0,30.15,West,259,2.0,3.0,46,0.00,,,0.00,weatherlink.com 1.10,2013-06-05 16:39:00,
2013-06-05 12:54:00,73.1,49.0,30.15,North,11,0.0,1.0,42,0.00,,,0.00,weatherlink.com 1.10,2013-06-05 16:54:00,
2013-06-05 13:09:00,73.3,52.0,30.14,West,280,2.0,3.0,47,0.00,,,0.00,weatherlink.com 1.10,2013-06-05 17:09:00,
2013-06-05 13:24:00,74.4,54.0,30.14,West,280,0.0,1.0,49,0.00,,,0.00,weatherlink.com 1.10,2013-06-05 17:24:00,
2013-06-05 13:39:00,74.1,49.0,30.13,WNW,297,0.0,3.0,42,0.00,,,0.00,weatherlink.com 1.10,2013-06-05 17:39:00,
2013-06-05 13:54:00,75.2,50.0,30.12,West,259,0.0,2.0,41,0.00,,,0.00,weatherlink.com 1.10,2013-06-05 17:54:00,
2013-06-05 14:09:00,75.9,48.0,30.11,ENE,60,0.0,2.0,38,0.00,,,0.00,weatherlink.com 1.10,2013-06-05 18:09:00,
2013-06-05 14:24:00,74.8,48.0,30.10,ENE,58,0.0,1.0,39,0.00,,,0.00,weatherlink.com 1.10,2013-06-05 18:24:00,
2013-06-05 14:39:00,74.7,51.0,30.09,SE,132,1.0,2.0,43,0.00,,,0.00,weatherlink.com 1.10,2013-06-05 18:39:00,
2013-06-05 14:54:00,76.3,50.0,30.09,NNW,335,1.0,1.0,40,0.00,,,0.00,weatherlink.com 1.10,2013-06-05 18:54:00,
2013-06-05 15:09:00,76.6,48.0,30.09,WNW,291,0.0,3.0,37,0.00,,,0.00,weatherlink.com 1.10,2013-06-05 19:09:00,
2013-06-05 15:24:00,76.9,52.0,30.08,ENE,58,0.0,1.0,42,0.00,,,0.00,weatherlink.com 1.10,2013-06-05 19:24:00,
2013-06-05 15:39:00,76.9,46.0,30.08,NE,41,0.0,1.0,33,0.00,,,0.00,weatherlink.com 1.10,2013-06-05 19:39:00,
2013-06-05 15:54:00,77.1,50.0,30.07,NNE,15,0.0,0.0,38,0.00,,,0.00,weatherlink.com 1.10,2013-06-05 19:54:00,
2013-06-05 16:09:00,75.0,50.0,30.07,East,96,0.0,0.0,42,0.00,,,0.00,weatherlink.com 1.10,2013-06-05 20:09:00,
2013-06-05 16:24:00,75.7,50.0,30.06,SSW,195,0.0,0.0,40,0.00,,,0.00,weatherlink.com 1.10,2013-06-05 20:24:00,
2013-06-05 16:39:00,75.4,51.0,30.05,SSW,195,0.0,0.0,42,0.00,,,0.00,weatherlink.com 1.10,2013-06-05 20:39:00,
2013-06-05 16:54:00,74.9,53.0,30.06,NE,52,0.0,0.0,46,0.00,,,0.00,weatherlink.com 1.10,2013-06-05 20:54:00,
2013-06-05 17:09:00,73.4,52.0,30.06,ESE,107,0.0,2.0,48,0.00,,,0.00,weatherlink.com 1.10,2013-06-05 21:09:00,
2013-06-05 17:24:00,73.7,52.0,30.06,NE,34,0.0,0.0,47,0.00,,,0.00,weatherlink.com 1.10,2013-06-05 21:24:00,
2013-06-05 17:39:00,73.5,50.0,30.07,WNW,282,0.0,2.0,43,0.00,,,0.00,weatherlink.com 1.10,2013-06-05 21:39:00,
2013-06-05 17:54:00,73.2,52.0,30.07,West,276,0.0,0.0,47,0.00,,,0.00,weatherlink.com 1.10,2013-06-05 21:54:00,
2013-06-05 18:09:00,72.7,49.0,30.07,WNW,299,0.0,1.0,44,0.00,,,0.00,weatherlink.com 1.10,2013-06-05 22:09:00,
2013-06-05 18:24:00,72.6,52.0,30.06,East,96,0.0,0.0,48,0.00,,,0.00,weatherlink.com 1.10,2013-06-05 22:24:00,
2013-06-05 18:55:00,71.7,54.0,30.06,East,83,0.0,0.0,53,0.00,,,0.00,weatherlink.com 1.10,2013-06-05 22:55:00,
2013-06-05 19:10:00,71.2,54.0,30.06,WNW,288,0.0,0.0,54,0.00,,,0.00,weatherlink.com 1.10,2013-06-05 23:10:00,
2013-06-05 19:25:00,70.1,53.0,30.06,East,89,0.0,1.0,55,0.00,,,0.00,weatherlink.com 1.10,2013-06-05 23:25:00,
2013-06-05 19:40:00,68.8,55.0,30.07,East,89,0.0,0.0,61,0.00,,,0.00,weatherlink.com 1.10,2013-06-05 23:40:00,
2013-06-05 19:55:00,67.2,55.0,30.06,East,89,0.0,0.0,64,0.00,,,0.00,weatherlink.com 1.10,2013-06-05 23:55:00,
2013-06-05 20:10:00,65.5,54.0,30.06,East,89,0.0,0.0,67,0.00,,,0.00,weatherlink.com 1.10,2013-06-06 00:10:00,
2013-06-05 20:25:00,63.7,55.0,30.06,East,89,0.0,0.0,72,0.00,,,0.00,weatherlink.com 1.10,2013-06-06 00:25:00,
2013-06-05 20:40:00,61.8,54.0,30.07,East,89,0.0,0.0,75,0.00,,,0.00,weatherlink.com 1.10,2013-06-06 00:40:00,
2013-06-05 20:55:00,60.1,53.0,30.07,East,89,0.0,0.0,78,0.00,,,0.00,weatherlink.com 1.10,2013-06-06 00:55:00,
2013-06-05 21:10:00,58.8,53.0,30.07,East,89,0.0,0.0,82,0.00,,,0.00,weatherlink.com 1.10,2013-06-06 01:10:00,
2013-06-05 21:25:00,57.6,53.0,30.08,East,89,0.0,0.0,84,0.00,,,0.00,weatherlink.com 1.10,2013-06-06 01:25:00,
2013-06-05 21:40:00,56.7,53.0,30.08,East,89,0.0,0.0,86,0.00,,,0.00,weatherlink.com 1.10,2013-06-06 01:40:00,
2013-06-05 21:55:00,55.8,52.0,30.08,East,89,0.0,0.0,87,0.00,,,0.00,weatherlink.com 1.10,2013-06-06 01:55:00,
2013-06-05 22:10:00,55.1,52.0,30.09,East,89,0.0,0.0,88,0.00,,,0.00,weatherlink.com 1.10,2013-06-06 02:10:00,
2013-06-05 22:25:00,54.5,52.0,30.09,East,89,0.0,0.0,90,0.00,,,0.00,weatherlink.com 1.10,2013-06-06 02:25:00,
2013-06-05 22:40:00,54.1,52.0,30.09,East,89,0.0,0.0,92,0.00,,,0.00,weatherlink.com 1.10,2013-06-06 02:40:00,
2013-06-05 22:55:00,53.6,51.0,30.10,East,89,0.0,0.0,92,0.00,,,0.00,weatherlink.com 1.10,2013-06-06 02:55:00,
2013-06-05 23:10:00,53.5,52.0,30.10,East,89,0.0,0.0,93,0.00,,,0.00,weatherlink.com 1.10,2013-06-06 03:10:00,
2013-06-05 23:25:00,53.8,52.0,30.09,East,90,0.0,0.0,93,0.00,,,0.00,weatherlink.com 1.10,2013-06-06 03:25:00,
2013-06-05 23:40:00,53.7,52.0,30.09,East,90,0.0,0.0,93,0.00,,,0.00,weatherlink.com 1.10,2013-06-06 03:40:00,
2013-06-05 23:55:00,54.3,52.0,30.10,East,90,0.0,0.0,92,0.00,,,0.00,weatherlink.com 1.10,2013-06-06 03:55:00,